sensor_id;sensor_type;location;lat;lon;timestamp;P1;durP1;ratioP1;P2;durP2;ratioP2
37273;SDS011;23161;51.250;5.554;2022-09-27T00:02:14;3.75;;;1.13;;
37273;SDS011;23161;51.250;5.554;2022-09-27T00:04:40;5.50;;;2.88;;
37273;SDS011;23161;51.250;5.554;2022-09-27T00:07:05;2.47;;;1.60;;
37273;SDS011;23161;51.250;5.554;2022-09-27T00:09:32;1.48;;;1.23;;
37273;SDS011;23161;51.250;5.554;2022-09-27T00:11:57;1.15;;;1.15;;
37273;SDS011;23161;51.250;5.554;2022-09-27T00:14:23;2.88;;;1.98;;
37273;SDS011;23161;51.250;5.554;2022-09-27T00:16:49;3.50;;;1.83;;
37273;SDS011;23161;51.250;5.554;2022-09-27T00:19:17;1.75;;;1.38;;
37273;SDS011;23161;51.250;5.554;2022-09-27T00:21:46;4.05;;;1.95;;
37273;SDS011;23161;51.250;5.554;2022-09-27T00:24:13;1.40;;;1.30;;
37273;SDS011;23161;51.250;5.554;2022-09-27T00:26:41;2.55;;;1.85;;
37273;SDS011;23161;51.250;5.554;2022-09-27T00:29:08;2.97;;;2.15;;
37273;SDS011;23161;51.250;5.554;2022-09-27T00:31:36;2.30;;;1.40;;
37273;SDS011;23161;51.250;5.554;2022-09-27T00:34:02;4.40;;;1.38;;
37273;SDS011;23161;51.250;5.554;2022-09-27T00:36:30;6.22;;;1.23;;
37273;SDS011;23161;51.250;5.554;2022-09-27T00:38:57;0.95;;;0.80;;
37273;SDS011;23161;51.250;5.554;2022-09-27T00:41:28;4.00;;;1.25;;
37273;SDS011;23161;51.250;5.554;2022-09-27T00:44:00;1.27;;;0.95;;
37273;SDS011;23161;51.250;5.554;2022-09-27T00:46:47;1.33;;;0.90;;
37273;SDS011;23161;51.250;5.554;2022-09-27T00:49:30;4.03;;;1.00;;
37273;SDS011;23161;51.250;5.554;2022-09-27T00:52:03;2.08;;;1.20;;
37273;SDS011;23161;51.250;5.554;2022-09-27T00:54:40;4.72;;;1.58;;
37273;SDS011;23161;51.250;5.554;2022-09-27T00:57:09;8.55;;;2.00;;
37273;SDS011;23161;51.250;5.554;2022-09-27T00:59:55;1.60;;;1.10;;
37273;SDS011;23161;51.250;5.554;2022-09-27T01:02:28;6.97;;;2.42;;
37273;SDS011;23161;51.250;5.554;2022-09-27T01:04:56;1.95;;;0.98;;
37273;SDS011;23161;51.250;5.554;2022-09-27T01:07:22;1.52;;;0.80;;
37273;SDS011;23161;51.250;5.554;2022-09-27T01:09:48;1.55;;;0.95;;
37273;SDS011;23161;51.250;5.554;2022-09-27T01:12:30;5.78;;;1.48;;
37273;SDS011;23161;51.250;5.554;2022-09-27T01:22:44;1.98;;;1.65;;
37273;SDS011;23161;51.250;5.554;2022-09-27T01:28:11;3.92;;;1.13;;
37273;SDS011;23161;51.250;5.554;2022-09-27T01:31:09;1.60;;;1.13;;
37273;SDS011;23161;51.250;5.554;2022-09-27T01:33:43;1.05;;;1.02;;
37273;SDS011;23161;51.250;5.554;2022-09-27T01:41:25;0.82;;;0.82;;
37273;SDS011;23161;51.250;5.554;2022-09-27T01:44:29;1.15;;;1.02;;
37273;SDS011;23161;51.250;5.554;2022-09-27T01:47:14;4.93;;;1.27;;
37273;SDS011;23161;51.250;5.554;2022-09-27T01:49:52;0.95;;;0.95;;
37273;SDS011;23161;51.250;5.554;2022-09-27T01:52:19;0.90;;;0.47;;
37273;SDS011;23161;51.250;5.554;2022-09-27T01:54:52;2.08;;;1.42;;
37273;SDS011;23161;51.250;5.554;2022-09-27T01:57:48;2.38;;;0.80;;
37273;SDS011;23161;51.250;5.554;2022-09-27T02:00:26;2.30;;;0.85;;
37273;SDS011;23161;51.250;5.554;2022-09-27T02:03:08;2.15;;;0.75;;
37273;SDS011;23161;51.250;5.554;2022-09-27T02:06:11;1.95;;;0.98;;
37273;SDS011;23161;51.250;5.554;2022-09-27T02:09:08;6.57;;;1.20;;
37273;SDS011;23161;51.250;5.554;2022-09-27T02:12:13;2.03;;;1.08;;
37273;SDS011;23161;51.250;5.554;2022-09-27T02:19:57;0.30;;;0.30;;
37273;SDS011;23161;51.250;5.554;2022-09-27T02:22:41;1.85;;;0.30;;
37273;SDS011;23161;51.250;5.554;2022-09-27T02:25:15;1.80;;;0.63;;
37273;SDS011;23161;51.250;5.554;2022-09-27T02:30:40;0.88;;;0.30;;
37273;SDS011;23161;51.250;5.554;2022-09-27T02:33:30;0.82;;;0.30;;
37273;SDS011;23161;51.250;5.554;2022-09-27T02:36:01;1.83;;;0.93;;
37273;SDS011;23161;51.250;5.554;2022-09-27T02:38:27;5.40;;;0.85;;
37273;SDS011;23161;51.250;5.554;2022-09-27T02:40:55;3.08;;;0.80;;
37273;SDS011;23161;51.250;5.554;2022-09-27T02:43:21;8.27;;;0.93;;
37273;SDS011;23161;51.250;5.554;2022-09-27T02:45:58;1.25;;;0.70;;
37273;SDS011;23161;51.250;5.554;2022-09-27T03:00:18;2.83;;;0.68;;
37273;SDS011;23161;51.250;5.554;2022-09-27T03:05:27;1.55;;;0.47;;
37273;SDS011;23161;51.250;5.554;2022-09-27T03:07:56;0.65;;;0.65;;
37273;SDS011;23161;51.250;5.554;2022-09-27T03:10:25;1.27;;;0.52;;
37273;SDS011;23161;51.250;5.554;2022-09-27T03:12:52;2.50;;;0.65;;
37273;SDS011;23161;51.250;5.554;2022-09-27T03:15:18;2.33;;;0.57;;
37273;SDS011;23161;51.250;5.554;2022-09-27T03:18:00;3.58;;;1.25;;
37273;SDS011;23161;51.250;5.554;2022-09-27T03:20:32;3.63;;;0.90;;
37273;SDS011;23161;51.250;5.554;2022-09-27T03:23:26;0.73;;;0.70;;
37273;SDS011;23161;51.250;5.554;2022-09-27T03:25:53;1.48;;;0.60;;
37273;SDS011;23161;51.250;5.554;2022-09-27T03:28:18;0.98;;;0.60;;
37273;SDS011;23161;51.250;5.554;2022-09-27T03:30:46;1.58;;;0.93;;
37273;SDS011;23161;51.250;5.554;2022-09-27T03:33:22;3.10;;;0.68;;
37273;SDS011;23161;51.250;5.554;2022-09-27T03:35:53;0.15;;;0.15;;
37273;SDS011;23161;51.250;5.554;2022-09-27T03:38:20;2.00;;;0.43;;
37273;SDS011;23161;51.250;5.554;2022-09-27T03:40:45;0.88;;;0.68;;
37273;SDS011;23161;51.250;5.554;2022-09-27T03:43:12;0.30;;;0.30;;
37273;SDS011;23161;51.250;5.554;2022-09-27T03:45:38;1.88;;;0.98;;
37273;SDS011;23161;51.250;5.554;2022-09-27T03:48:07;2.28;;;0.50;;
37273;SDS011;23161;51.250;5.554;2022-09-27T03:50:34;2.38;;;0.60;;
37273;SDS011;23161;51.250;5.554;2022-09-27T03:53:00;1.45;;;0.40;;
37273;SDS011;23161;51.250;5.554;2022-09-27T03:55:26;4.95;;;1.35;;
37273;SDS011;23161;51.250;5.554;2022-09-27T03:57:51;2.35;;;0.80;;
37273;SDS011;23161;51.250;5.554;2022-09-27T04:00:19;1.45;;;0.52;;
37273;SDS011;23161;51.250;5.554;2022-09-27T04:02:45;1.58;;;0.70;;
37273;SDS011;23161;51.250;5.554;2022-09-27T04:05:20;1.30;;;0.20;;
37273;SDS011;23161;51.250;5.554;2022-09-27T04:07:47;5.70;;;1.27;;
37273;SDS011;23161;51.250;5.554;2022-09-27T04:10:15;2.38;;;0.52;;
37273;SDS011;23161;51.250;5.554;2022-09-27T04:12:41;1.42;;;0.70;;
37273;SDS011;23161;51.250;5.554;2022-09-27T04:15:07;2.28;;;0.60;;
37273;SDS011;23161;51.250;5.554;2022-09-27T04:17:50;0.80;;;0.60;;
37273;SDS011;23161;51.250;5.554;2022-09-27T04:20:31;2.45;;;1.25;;
37273;SDS011;23161;51.250;5.554;2022-09-27T04:23:00;5.13;;;0.97;;
37273;SDS011;23161;51.250;5.554;2022-09-27T04:25:27;2.28;;;0.30;;
37273;SDS011;23161;51.250;5.554;2022-09-27T04:27:56;1.08;;;0.35;;
37273;SDS011;23161;51.250;5.554;2022-09-27T04:30:23;0.52;;;0.20;;
37273;SDS011;23161;51.250;5.554;2022-09-27T04:33:16;0.50;;;0.50;;
37273;SDS011;23161;51.250;5.554;2022-09-27T04:36:05;0.52;;;0.40;;
37273;SDS011;23161;51.250;5.554;2022-09-27T04:39:01;1.63;;;0.98;;
37273;SDS011;23161;51.250;5.554;2022-09-27T04:41:30;4.45;;;1.40;;
37273;SDS011;23161;51.250;5.554;2022-09-27T04:43:56;2.13;;;0.73;;
37273;SDS011;23161;51.250;5.554;2022-09-27T04:46:25;1.75;;;0.43;;
37273;SDS011;23161;51.250;5.554;2022-09-27T04:48:56;8.35;;;1.75;;
37273;SDS011;23161;51.250;5.554;2022-09-27T04:51:27;1.25;;;0.52;;
37273;SDS011;23161;51.250;5.554;2022-09-27T04:53:56;3.42;;;1.10;;
37273;SDS011;23161;51.250;5.554;2022-09-27T04:56:27;1.52;;;0.63;;
37273;SDS011;23161;51.250;5.554;2022-09-27T04:58:54;3.33;;;0.90;;
37273;SDS011;23161;51.250;5.554;2022-09-27T05:01:20;2.05;;;0.73;;
37273;SDS011;23161;51.250;5.554;2022-09-27T05:04:07;0.82;;;0.30;;
37273;SDS011;23161;51.250;5.554;2022-09-27T05:06:36;1.70;;;0.45;;
37273;SDS011;23161;51.250;5.554;2022-09-27T05:09:14;0.40;;;0.40;;
37273;SDS011;23161;51.250;5.554;2022-09-27T05:11:53;6.30;;;1.27;;
37273;SDS011;23161;51.250;5.554;2022-09-27T05:14:31;7.88;;;0.88;;
37273;SDS011;23161;51.250;5.554;2022-09-27T05:17:20;0.52;;;0.38;;
37273;SDS011;23161;51.250;5.554;2022-09-27T05:20:07;0.63;;;0.57;;
37273;SDS011;23161;51.250;5.554;2022-09-27T05:22:58;3.50;;;0.52;;
37273;SDS011;23161;51.250;5.554;2022-09-27T05:25:26;0.68;;;0.43;;
37273;SDS011;23161;51.250;5.554;2022-09-27T05:27:52;0.47;;;0.47;;
37273;SDS011;23161;51.250;5.554;2022-09-27T05:30:18;1.50;;;0.82;;
37273;SDS011;23161;51.250;5.554;2022-09-27T05:32:48;1.05;;;0.73;;
37273;SDS011;23161;51.250;5.554;2022-09-27T05:35:32;0.57;;;0.30;;
37273;SDS011;23161;51.250;5.554;2022-09-27T05:38:01;1.75;;;0.32;;
37273;SDS011;23161;51.250;5.554;2022-09-27T05:40:29;2.13;;;0.75;;
37273;SDS011;23161;51.250;5.554;2022-09-27T05:42:58;0.80;;;0.40;;
37273;SDS011;23161;51.250;5.554;2022-09-27T05:45:24;0.68;;;0.38;;
37273;SDS011;23161;51.250;5.554;2022-09-27T05:47:52;2.42;;;1.15;;
37273;SDS011;23161;51.250;5.554;2022-09-27T05:50:20;0.45;;;0.30;;
37273;SDS011;23161;51.250;5.554;2022-09-27T05:52:46;2.83;;;1.40;;
37273;SDS011;23161;51.250;5.554;2022-09-27T05:55:13;0.43;;;0.35;;
37273;SDS011;23161;51.250;5.554;2022-09-27T05:57:52;1.77;;;0.50;;
37273;SDS011;23161;51.250;5.554;2022-09-27T06:00:28;6.28;;;1.20;;
37273;SDS011;23161;51.250;5.554;2022-09-27T06:02:55;1.25;;;0.60;;
37273;SDS011;23161;51.250;5.554;2022-09-27T06:08:34;2.72;;;0.32;;
37273;SDS011;23161;51.250;5.554;2022-09-27T06:11:11;0.85;;;0.75;;
37273;SDS011;23161;51.250;5.554;2022-09-27T06:13:37;0.60;;;0.40;;
37273;SDS011;23161;51.250;5.554;2022-09-27T06:16:08;1.90;;;0.70;;
37273;SDS011;23161;51.250;5.554;2022-09-27T06:18:37;0.38;;;0.38;;
37273;SDS011;23161;51.250;5.554;2022-09-27T06:21:04;0.20;;;0.20;;
37273;SDS011;23161;51.250;5.554;2022-09-27T06:23:31;0.60;;;0.30;;
37273;SDS011;23161;51.250;5.554;2022-09-27T06:26:01;1.05;;;0.40;;
37273;SDS011;23161;51.250;5.554;2022-09-27T06:28:47;0.90;;;0.40;;
37273;SDS011;23161;51.250;5.554;2022-09-27T06:31:16;2.75;;;1.33;;
37273;SDS011;23161;51.250;5.554;2022-09-27T06:34:00;6.55;;;0.85;;
37273;SDS011;23161;51.250;5.554;2022-09-27T06:36:27;0.43;;;0.43;;
37273;SDS011;23161;51.250;5.554;2022-09-27T06:38:53;0.98;;;0.93;;
37273;SDS011;23161;51.250;5.554;2022-09-27T06:41:25;0.38;;;0.28;;
37273;SDS011;23161;51.250;5.554;2022-09-27T06:44:23;2.33;;;0.55;;
37273;SDS011;23161;51.250;5.554;2022-09-27T06:47:08;1.25;;;0.70;;
37273;SDS011;23161;51.250;5.554;2022-09-27T06:49:45;2.08;;;0.32;;
37273;SDS011;23161;51.250;5.554;2022-09-27T06:52:13;0.95;;;0.50;;
37273;SDS011;23161;51.250;5.554;2022-09-27T06:54:39;0.75;;;0.75;;
37273;SDS011;23161;51.250;5.554;2022-09-27T06:57:06;1.00;;;0.60;;
37273;SDS011;23161;51.250;5.554;2022-09-27T06:59:31;17.73;;;1.42;;
37273;SDS011;23161;51.250;5.554;2022-09-27T07:02:35;0.73;;;0.32;;
37273;SDS011;23161;51.250;5.554;2022-09-27T07:05:29;0.85;;;0.77;;
37273;SDS011;23161;51.250;5.554;2022-09-27T07:08:14;0.20;;;0.20;;
37273;SDS011;23161;51.250;5.554;2022-09-27T07:10:50;0.75;;;0.68;;
37273;SDS011;23161;51.250;5.554;2022-09-27T07:13:17;1.48;;;0.93;;
37273;SDS011;23161;51.250;5.554;2022-09-27T07:15:43;1.02;;;0.73;;
37273;SDS011;23161;51.250;5.554;2022-09-27T07:18:12;1.13;;;0.68;;
37273;SDS011;23161;51.250;5.554;2022-09-27T07:20:38;0.82;;;0.82;;
37273;SDS011;23161;51.250;5.554;2022-09-27T07:23:05;0.30;;;0.30;;
37273;SDS011;23161;51.250;5.554;2022-09-27T07:25:33;1.17;;;1.17;;
37273;SDS011;23161;51.250;5.554;2022-09-27T07:28:04;1.23;;;0.73;;
37273;SDS011;23161;51.250;5.554;2022-09-27T07:30:32;1.73;;;0.90;;
37273;SDS011;23161;51.250;5.554;2022-09-27T07:33:00;1.60;;;1.20;;
37273;SDS011;23161;51.250;5.554;2022-09-27T07:35:27;0.85;;;0.85;;
37273;SDS011;23161;51.250;5.554;2022-09-27T07:37:54;3.95;;;1.90;;
37273;SDS011;23161;51.250;5.554;2022-09-27T07:40:21;1.38;;;0.90;;
37273;SDS011;23161;51.250;5.554;2022-09-27T07:42:47;1.75;;;0.82;;
37273;SDS011;23161;51.250;5.554;2022-09-27T07:45:18;4.28;;;1.48;;
37273;SDS011;23161;51.250;5.554;2022-09-27T07:48:09;4.88;;;2.08;;
37273;SDS011;23161;51.250;5.554;2022-09-27T07:51:04;2.88;;;1.23;;
37273;SDS011;23161;51.250;5.554;2022-09-27T07:53:44;2.03;;;1.70;;
37273;SDS011;23161;51.250;5.554;2022-09-27T07:56:48;3.45;;;1.27;;
37273;SDS011;23161;51.250;5.554;2022-09-27T07:59:16;6.30;;;2.17;;
37273;SDS011;23161;51.250;5.554;2022-09-27T08:01:43;7.22;;;2.45;;
37273;SDS011;23161;51.250;5.554;2022-09-27T08:04:10;6.85;;;1.95;;
37273;SDS011;23161;51.250;5.554;2022-09-27T08:06:36;1.13;;;1.02;;
37273;SDS011;23161;51.250;5.554;2022-09-27T08:09:05;6.00;;;2.13;;
37273;SDS011;23161;51.250;5.554;2022-09-27T08:11:34;4.57;;;2.13;;
37273;SDS011;23161;51.250;5.554;2022-09-27T08:14:02;2.47;;;1.95;;
37273;SDS011;23161;51.250;5.554;2022-09-27T08:16:32;5.88;;;1.80;;
37273;SDS011;23161;51.250;5.554;2022-09-27T08:19:17;1.48;;;1.10;;
37273;SDS011;23161;51.250;5.554;2022-09-27T08:22:02;1.48;;;1.38;;
37273;SDS011;23161;51.250;5.554;2022-09-27T08:24:40;1.75;;;1.40;;
37273;SDS011;23161;51.250;5.554;2022-09-27T08:27:22;5.05;;;1.77;;
37273;SDS011;23161;51.250;5.554;2022-09-27T08:29:54;2.75;;;1.92;;
37273;SDS011;23161;51.250;5.554;2022-09-27T08:32:21;2.70;;;1.50;;
37273;SDS011;23161;51.250;5.554;2022-09-27T08:34:46;2.75;;;1.45;;
37273;SDS011;23161;51.250;5.554;2022-09-27T08:37:13;4.43;;;2.63;;
37273;SDS011;23161;51.250;5.554;2022-09-27T08:39:38;4.45;;;3.25;;
37273;SDS011;23161;51.250;5.554;2022-09-27T08:42:09;2.25;;;1.77;;
37273;SDS011;23161;51.250;5.554;2022-09-27T08:52:41;3.17;;;2.72;;
37273;SDS011;23161;51.250;5.554;2022-09-27T08:58:02;1.98;;;1.88;;
37273;SDS011;23161;51.250;5.554;2022-09-27T09:00:36;3.00;;;2.70;;
37273;SDS011;23161;51.250;5.554;2022-09-27T09:03:03;3.08;;;2.88;;
37273;SDS011;23161;51.250;5.554;2022-09-27T09:05:33;2.67;;;2.22;;
37273;SDS011;23161;51.250;5.554;2022-09-27T09:16:40;3.75;;;2.65;;
37273;SDS011;23161;51.250;5.554;2022-09-27T09:19:21;2.65;;;2.45;;
37273;SDS011;23161;51.250;5.554;2022-09-27T09:25:26;3.00;;;2.80;;
37273;SDS011;23161;51.250;5.554;2022-09-27T09:33:58;4.77;;;3.63;;
37273;SDS011;23161;51.250;5.554;2022-09-27T09:36:27;4.30;;;2.40;;
37273;SDS011;23161;51.250;5.554;2022-09-27T09:39:03;3.42;;;2.08;;
37273;SDS011;23161;51.250;5.554;2022-09-27T09:41:37;3.97;;;2.80;;
37273;SDS011;23161;51.250;5.554;2022-09-27T09:44:25;3.35;;;3.05;;
37273;SDS011;23161;51.250;5.554;2022-09-27T09:46:59;3.75;;;3.28;;
37273;SDS011;23161;51.250;5.554;2022-09-27T09:49:32;4.35;;;3.80;;
37273;SDS011;23161;51.250;5.554;2022-09-27T09:52:04;4.70;;;3.92;;
37273;SDS011;23161;51.250;5.554;2022-09-27T09:54:36;5.32;;;4.75;;
37273;SDS011;23161;51.250;5.554;2022-09-27T09:57:37;6.43;;;4.97;;
37273;SDS011;23161;51.250;5.554;2022-09-27T10:00:14;8.80;;;6.78;;
37273;SDS011;23161;51.250;5.554;2022-09-27T10:02:46;11.02;;;8.13;;
37273;SDS011;23161;51.250;5.554;2022-09-27T10:05:19;9.23;;;7.50;;
37273;SDS011;23161;51.250;5.554;2022-09-27T10:07:53;9.80;;;8.15;;
37273;SDS011;23161;51.250;5.554;2022-09-27T10:10:23;12.93;;;9.15;;
37273;SDS011;23161;51.250;5.554;2022-09-27T10:13:09;17.70;;;11.57;;
37273;SDS011;23161;51.250;5.554;2022-09-27T10:16:06;12.77;;;11.55;;
37273;SDS011;23161;51.250;5.554;2022-09-27T10:18:34;20.73;;;12.00;;
37273;SDS011;23161;51.250;5.554;2022-09-27T10:21:05;15.93;;;12.23;;
37273;SDS011;23161;51.250;5.554;2022-09-27T10:26:58;21.50;;;13.57;;
37273;SDS011;23161;51.250;5.554;2022-09-27T10:29:30;15.68;;;11.48;;
37273;SDS011;23161;51.250;5.554;2022-09-27T10:31:59;18.17;;;12.32;;
37273;SDS011;23161;51.250;5.554;2022-09-27T10:34:34;13.93;;;8.23;;
37273;SDS011;23161;51.250;5.554;2022-09-27T10:37:08;12.93;;;8.95;;
37273;SDS011;23161;51.250;5.554;2022-09-27T10:39:53;13.95;;;9.10;;
37273;SDS011;23161;51.250;5.554;2022-09-27T10:42:21;8.68;;;7.57;;
37273;SDS011;23161;51.250;5.554;2022-09-27T10:45:24;8.02;;;5.40;;
37273;SDS011;23161;51.250;5.554;2022-09-27T10:48:19;10.85;;;6.25;;
37273;SDS011;23161;51.250;5.554;2022-09-27T10:50:58;10.30;;;5.90;;
37273;SDS011;23161;51.250;5.554;2022-09-27T10:53:44;8.10;;;5.75;;
37273;SDS011;23161;51.250;5.554;2022-09-27T10:56:22;12.10;;;9.02;;
37273;SDS011;23161;51.250;5.554;2022-09-27T10:58:52;11.93;;;7.80;;
37273;SDS011;23161;51.250;5.554;2022-09-27T11:01:20;10.02;;;8.38;;
37273;SDS011;23161;51.250;5.554;2022-09-27T11:04:27;19.27;;;13.20;;
37273;SDS011;23161;51.250;5.554;2022-09-27T11:09:54;10.15;;;6.97;;
37273;SDS011;23161;51.250;5.554;2022-09-27T11:12:28;13.55;;;8.15;;
37273;SDS011;23161;51.250;5.554;2022-09-27T11:14:57;7.28;;;5.28;;
37273;SDS011;23161;51.250;5.554;2022-09-27T11:20:20;11.03;;;8.03;;
37273;SDS011;23161;51.250;5.554;2022-09-27T11:23:19;14.00;;;8.05;;
37273;SDS011;23161;51.250;5.554;2022-09-27T11:28:56;9.68;;;6.65;;
37273;SDS011;23161;51.250;5.554;2022-09-27T11:34:41;13.70;;;9.27;;
37273;SDS011;23161;51.250;5.554;2022-09-27T11:43:18;10.73;;;6.40;;
37273;SDS011;23161;51.250;5.554;2022-09-27T11:51:25;16.42;;;12.05;;
37273;SDS011;23161;51.250;5.554;2022-09-27T11:54:12;20.15;;;14.68;;
37273;SDS011;23161;51.250;5.554;2022-09-27T11:57:12;30.38;;;18.90;;
37273;SDS011;23161;51.250;5.554;2022-09-27T12:11:30;11.32;;;7.43;;
37273;SDS011;23161;51.250;5.554;2022-09-27T12:16:42;9.10;;;6.65;;
37273;SDS011;23161;51.250;5.554;2022-09-27T12:19:15;6.43;;;4.85;;
37273;SDS011;23161;51.250;5.554;2022-09-27T12:22:13;5.72;;;4.15;;
37273;SDS011;23161;51.250;5.554;2022-09-27T12:24:44;5.47;;;4.97;;
37273;SDS011;23161;51.250;5.554;2022-09-27T12:27:42;5.53;;;4.10;;
37273;SDS011;23161;51.250;5.554;2022-09-27T12:30:17;3.25;;;2.80;;
37273;SDS011;23161;51.250;5.554;2022-09-27T12:35:40;4.25;;;3.28;;
37273;SDS011;23161;51.250;5.554;2022-09-27T12:41:13;3.33;;;3.15;;
37273;SDS011;23161;51.250;5.554;2022-09-27T12:43:57;2.65;;;2.45;;
37273;SDS011;23161;51.250;5.554;2022-09-27T12:46:46;2.83;;;2.63;;
37273;SDS011;23161;51.250;5.554;2022-09-27T12:52:14;2.70;;;2.42;;
37273;SDS011;23161;51.250;5.554;2022-09-27T12:57:53;3.60;;;3.38;;
37273;SDS011;23161;51.250;5.554;2022-09-27T13:00:38;3.85;;;3.55;;
37273;SDS011;23161;51.250;5.554;2022-09-27T13:07:02;3.38;;;3.08;;
37273;SDS011;23161;51.250;5.554;2022-09-27T13:09:14;3.75;;;3.45;;
37273;SDS011;23161;51.250;5.554;2022-09-27T13:25:48;3.20;;;2.92;;
37273;SDS011;23161;51.250;5.554;2022-09-27T13:33:30;7.95;;;3.17;;
37273;SDS011;23161;51.250;5.554;2022-09-27T13:42:28;3.22;;;2.45;;
37273;SDS011;23161;51.250;5.554;2022-09-27T13:45:05;2.92;;;1.63;;
37273;SDS011;23161;51.250;5.554;2022-09-27T13:47:45;5.97;;;2.17;;
37273;SDS011;23161;51.250;5.554;2022-09-27T13:50:26;2.95;;;1.55;;
37273;SDS011;23161;51.250;5.554;2022-09-27T13:55:51;4.47;;;2.42;;
37273;SDS011;23161;51.250;5.554;2022-09-27T14:01:32;4.45;;;3.80;;
37273;SDS011;23161;51.250;5.554;2022-09-27T14:05:06;4.38;;;3.45;;
37273;SDS011;23161;51.250;5.554;2022-09-27T14:07:11;7.25;;;3.20;;
37273;SDS011;23161;51.250;5.554;2022-09-27T14:09:41;8.43;;;4.72;;
37273;SDS011;23161;51.250;5.554;2022-09-27T14:12:19;4.65;;;2.33;;
37273;SDS011;23161;51.250;5.554;2022-09-27T14:14:49;3.08;;;2.75;;
37273;SDS011;23161;51.250;5.554;2022-09-27T14:17:20;3.05;;;2.55;;
37273;SDS011;23161;51.250;5.554;2022-09-27T14:19:47;3.80;;;2.45;;
37273;SDS011;23161;51.250;5.554;2022-09-27T14:22:17;2.75;;;2.10;;
37273;SDS011;23161;51.250;5.554;2022-09-27T14:24:55;2.10;;;1.90;;
37273;SDS011;23161;51.250;5.554;2022-09-27T14:27:35;2.53;;;1.60;;
37273;SDS011;23161;51.250;5.554;2022-09-27T14:30:28;2.40;;;1.88;;
37273;SDS011;23161;51.250;5.554;2022-09-27T14:33:24;4.10;;;3.20;;
37273;SDS011;23161;51.250;5.554;2022-09-27T14:35:55;3.30;;;1.80;;
37273;SDS011;23161;51.250;5.554;2022-09-27T14:38:40;2.70;;;2.20;;
37273;SDS011;23161;51.250;5.554;2022-09-27T14:41:34;2.97;;;1.80;;
37273;SDS011;23161;51.250;5.554;2022-09-27T14:44:00;1.85;;;1.63;;
37273;SDS011;23161;51.250;5.554;2022-09-27T14:46:30;3.55;;;1.75;;
37273;SDS011;23161;51.250;5.554;2022-09-27T14:48:56;2.08;;;1.90;;
37273;SDS011;23161;51.250;5.554;2022-09-27T14:51:30;4.13;;;1.65;;
37273;SDS011;23161;51.250;5.554;2022-09-27T14:53:57;1.23;;;1.05;;
37273;SDS011;23161;51.250;5.554;2022-09-27T14:56:31;8.65;;;1.83;;
37273;SDS011;23161;51.250;5.554;2022-09-27T14:59:15;1.58;;;1.40;;
37273;SDS011;23161;51.250;5.554;2022-09-27T15:01:51;2.63;;;2.40;;
37273;SDS011;23161;51.250;5.554;2022-09-27T15:04:17;1.63;;;1.23;;
37273;SDS011;23161;51.250;5.554;2022-09-27T15:06:46;7.15;;;2.60;;
37273;SDS011;23161;51.250;5.554;2022-09-27T15:09:13;2.88;;;2.20;;
37273;SDS011;23161;51.250;5.554;2022-09-27T15:11:41;3.30;;;3.00;;
37273;SDS011;23161;51.250;5.554;2022-09-27T15:14:15;3.20;;;2.90;;
37273;SDS011;23161;51.250;5.554;2022-09-27T15:16:44;4.88;;;2.88;;
37273;SDS011;23161;51.250;5.554;2022-09-27T15:19:13;10.13;;;2.47;;
37273;SDS011;23161;51.250;5.554;2022-09-27T15:21:41;3.20;;;2.15;;
37273;SDS011;23161;51.250;5.554;2022-09-27T15:27:15;2.22;;;1.42;;
37273;SDS011;23161;51.250;5.554;2022-09-27T15:29:55;1.73;;;1.63;;
37273;SDS011;23161;51.250;5.554;2022-09-27T15:32:23;2.53;;;1.55;;
37273;SDS011;23161;51.250;5.554;2022-09-27T15:34:51;3.17;;;1.38;;
37273;SDS011;23161;51.250;5.554;2022-09-27T15:37:32;3.17;;;1.85;;
37273;SDS011;23161;51.250;5.554;2022-09-27T15:40:50;2.22;;;1.30;;
37273;SDS011;23161;51.250;5.554;2022-09-27T15:42:55;1.65;;;1.55;;
37273;SDS011;23161;51.250;5.554;2022-09-27T15:45:29;2.53;;;1.27;;
37273;SDS011;23161;51.250;5.554;2022-09-27T15:48:12;2.78;;;1.42;;
37273;SDS011;23161;51.250;5.554;2022-09-27T15:50:39;5.97;;;3.28;;
37273;SDS011;23161;51.250;5.554;2022-09-27T15:53:06;6.85;;;3.80;;
37273;SDS011;23161;51.250;5.554;2022-09-27T15:55:34;13.80;;;7.40;;
37273;SDS011;23161;51.250;5.554;2022-09-27T15:58:05;8.52;;;5.30;;
37273;SDS011;23161;51.250;5.554;2022-09-27T16:00:49;15.50;;;6.05;;
37273;SDS011;23161;51.250;5.554;2022-09-27T16:03:28;7.90;;;6.35;;
37273;SDS011;23161;51.250;5.554;2022-09-27T16:06:02;20.20;;;14.07;;
37273;SDS011;23161;51.250;5.554;2022-09-27T16:08:28;14.70;;;10.38;;
37273;SDS011;23161;51.250;5.554;2022-09-27T16:10:55;11.80;;;10.57;;
37273;SDS011;23161;51.250;5.554;2022-09-27T16:13:23;16.40;;;12.20;;
37273;SDS011;23161;51.250;5.554;2022-09-27T16:15:50;8.25;;;7.45;;
37273;SDS011;23161;51.250;5.554;2022-09-27T16:18:17;16.80;;;14.82;;
37273;SDS011;23161;51.250;5.554;2022-09-27T16:20:43;25.50;;;16.38;;
37273;SDS011;23161;51.250;5.554;2022-09-27T16:23:09;14.90;;;10.63;;
37273;SDS011;23161;51.250;5.554;2022-09-27T16:25:34;16.30;;;11.00;;
37273;SDS011;23161;51.250;5.554;2022-09-27T16:28:01;11.88;;;9.75;;
37273;SDS011;23161;51.250;5.554;2022-09-27T16:30:28;10.57;;;8.70;;
37273;SDS011;23161;51.250;5.554;2022-09-27T16:32:55;9.02;;;7.45;;
37273;SDS011;23161;51.250;5.554;2022-09-27T16:35:23;8.40;;;6.43;;
37273;SDS011;23161;51.250;5.554;2022-09-27T16:37:49;9.05;;;4.97;;
37273;SDS011;23161;51.250;5.554;2022-09-27T16:40:15;15.45;;;8.95;;
37273;SDS011;23161;51.250;5.554;2022-09-27T16:42:47;10.70;;;6.13;;
37273;SDS011;23161;51.250;5.554;2022-09-27T16:45:13;11.88;;;6.00;;
37273;SDS011;23161;51.250;5.554;2022-09-27T16:47:41;5.35;;;3.10;;
37273;SDS011;23161;51.250;5.554;2022-09-27T16:50:08;5.88;;;2.92;;
37273;SDS011;23161;51.250;5.554;2022-09-27T16:52:55;4.35;;;3.05;;
37273;SDS011;23161;51.250;5.554;2022-09-27T16:55:20;2.33;;;1.90;;
37273;SDS011;23161;51.250;5.554;2022-09-27T16:57:47;3.03;;;2.05;;
37273;SDS011;23161;51.250;5.554;2022-09-27T17:00:14;2.50;;;2.05;;
37273;SDS011;23161;51.250;5.554;2022-09-27T17:02:40;2.72;;;2.08;;
37273;SDS011;23161;51.250;5.554;2022-09-27T17:05:08;4.80;;;1.98;;
37273;SDS011;23161;51.250;5.554;2022-09-27T17:07:34;7.35;;;2.67;;
37273;SDS011;23161;51.250;5.554;2022-09-27T17:10:00;4.05;;;2.22;;
37273;SDS011;23161;51.250;5.554;2022-09-27T17:12:26;2.95;;;2.30;;
37273;SDS011;23161;51.250;5.554;2022-09-27T17:14:53;2.58;;;1.63;;
37273;SDS011;23161;51.250;5.554;2022-09-27T17:17:20;8.63;;;4.55;;
37273;SDS011;23161;51.250;5.554;2022-09-27T17:19:47;16.08;;;5.88;;
37273;SDS011;23161;51.250;5.554;2022-09-27T17:22:12;6.55;;;3.42;;
37273;SDS011;23161;51.250;5.554;2022-09-27T17:24:38;7.30;;;3.17;;
37273;SDS011;23161;51.250;5.554;2022-09-27T17:27:04;4.88;;;4.38;;
37273;SDS011;23161;51.250;5.554;2022-09-27T17:29:30;3.25;;;2.92;;
37273;SDS011;23161;51.250;5.554;2022-09-27T17:31:56;4.57;;;3.13;;
37273;SDS011;23161;51.250;5.554;2022-09-27T17:34:21;2.83;;;2.55;;
37273;SDS011;23161;51.250;5.554;2022-09-27T17:36:47;4.13;;;2.92;;
37273;SDS011;23161;51.250;5.554;2022-09-27T17:39:15;3.90;;;3.25;;
37273;SDS011;23161;51.250;5.554;2022-09-27T17:41:42;5.13;;;3.20;;
37273;SDS011;23161;51.250;5.554;2022-09-27T17:44:10;5.28;;;3.90;;
37273;SDS011;23161;51.250;5.554;2022-09-27T17:46:38;8.32;;;4.00;;
37273;SDS011;23161;51.250;5.554;2022-09-27T17:49:04;4.88;;;4.40;;
37273;SDS011;23161;51.250;5.554;2022-09-27T17:51:50;5.22;;;4.68;;
37273;SDS011;23161;51.250;5.554;2022-09-27T17:54:18;10.98;;;5.50;;
37273;SDS011;23161;51.250;5.554;2022-09-27T17:56:48;6.35;;;4.38;;
37273;SDS011;23161;51.250;5.554;2022-09-27T17:59:15;8.70;;;6.32;;
37273;SDS011;23161;51.250;5.554;2022-09-27T18:01:42;8.07;;;5.35;;
37273;SDS011;23161;51.250;5.554;2022-09-27T18:04:10;12.05;;;4.88;;
37273;SDS011;23161;51.250;5.554;2022-09-27T18:06:41;10.32;;;4.07;;